EZY73RL LFBD-EGKK
Flight info
| Callsign | EZY73RL |
|---|---|
| Flight time | 1h 11m |
| Altitude | 34000 |
| Route | CNA DCT MANAK DCT TIRAV DCT DIXAD DCT NTS DCT BAKUL DCT REN DCT UPALO DCT REVTU DCT ODREP UP88 VASUX |
| Aircraft | A320/M-SDE3FGHIRWY/LB1 |
Departure
| Time | 2026-05-05 10:10 |
|---|---|
| Airport | Bordeaux–Mérignac Airport (LFBD) |
Arrival
| Time | 2026-05-05 11:22 |
|---|---|
| Airport | London Gatwick Airport (EGKK) |
| Time | Latitude | Longitude | Altitude | Speed | Heading |
|---|---|---|---|---|---|
| 2026-05-05 09:39 | 44.83046 | -0.70558 | 165 ft | 0 kts | 135° |
| 2026-05-05 09:44 | 44.83047 | -0.70558 | 165 ft | 0 kts | 135° |
| 2026-05-05 10:01 | 44.83049 | -0.70561 | 165 ft | 3 kts | 134° |
| 2026-05-05 10:01 | 44.83068 | -0.70587 | 164 ft | 4 kts | 139° |
| 2026-05-05 10:01 | 44.83089 | -0.70608 | 164 ft | 4 kts | 162° |
| 2026-05-05 10:02 | 44.83113 | -0.70609 | 164 ft | 4 kts | 214° |
| 2026-05-05 10:02 | 44.83122 | -0.70600 | 164 ft | 1 kts | 225° |
| 2026-05-05 10:02 | 44.83122 | -0.70599 | 164 ft | 0 kts | 225° |
| 2026-05-05 10:04 | 44.83119 | -0.70603 | 164 ft | 2 kts | 225° |
| 2026-05-05 10:04 | 44.83094 | -0.70640 | 164 ft | 8 kts | 225° |
| 2026-05-05 10:04 | 44.83051 | -0.70700 | 164 ft | 9 kts | 225° |
| 2026-05-05 10:05 | 44.83010 | -0.70752 | 165 ft | 8 kts | 214° |
| 2026-05-05 10:05 | 44.82949 | -0.70811 | 165 ft | 11 kts | 211° |
| 2026-05-05 10:05 | 44.82903 | -0.70755 | 166 ft | 10 kts | 106° |
| 2026-05-05 10:05 | 44.82885 | -0.70670 | 166 ft | 9 kts | 106° |
| 2026-05-05 10:06 | 44.82882 | -0.70655 | 166 ft | 8 kts | 106° |
| 2026-05-05 10:06 | 44.82866 | -0.70576 | 167 ft | 9 kts | 106° |
| 2026-05-05 10:06 | 44.82846 | -0.70481 | 167 ft | 9 kts | 106° |
| 2026-05-05 10:06 | 44.82832 | -0.70416 | 167 ft | 6 kts | 106° |
| 2026-05-05 10:07 | 44.82820 | -0.70358 | 167 ft | 7 kts | 107° |
| 2026-05-05 10:07 | 44.82802 | -0.70271 | 168 ft | 14 kts | 106° |
| 2026-05-05 10:07 | 44.82767 | -0.70104 | 168 ft | 20 kts | 106° |
| 2026-05-05 10:07 | 44.82742 | -0.69984 | 169 ft | 6 kts | 106° |
| 2026-05-05 10:08 | 44.82716 | -0.69942 | 169 ft | 5 kts | 156° |
| 2026-05-05 10:08 | 44.82683 | -0.69943 | 169 ft | 5 kts | 191° |
| 2026-05-05 10:08 | 44.82654 | -0.69955 | 169 ft | 5 kts | 196° |
| 2026-05-05 10:08 | 44.82592 | -0.69980 | 170 ft | 7 kts | 196° |
| 2026-05-05 10:09 | 44.82555 | -0.69998 | 170 ft | 3 kts | 208° |
| 2026-05-05 10:09 | 44.82552 | -0.70036 | 170 ft | 6 kts | 277° |
| 2026-05-05 10:09 | 44.82562 | -0.70087 | 170 ft | 0 kts | 286° |
| 2026-05-05 10:09 | 44.82569 | -0.70119 | 170 ft | 22 kts | 286° |
| 2026-05-05 10:10 | 44.82688 | -0.70687 | 166 ft | 95 kts | 286° |
| 2026-05-05 10:10 | 44.82932 | -0.71852 | 176 ft | 149 kts | 288° |
| 2026-05-05 10:10 | 44.83220 | -0.73273 | 833 ft | 148 kts | 289° |
| 2026-05-05 10:10 | 44.83853 | -0.74472 | 1378 ft | 166 kts | 322° |
| 2026-05-05 10:11 | 44.84893 | -0.75372 | 1717 ft | 186 kts | 327° |
| 2026-05-05 10:11 | 44.86067 | -0.76310 | 1940 ft | 209 kts | 327° |
| 2026-05-05 10:11 | 44.87407 | -0.77376 | 2282 ft | 234 kts | 328° |
| 2026-05-05 10:11 | 44.88882 | -0.78560 | 2896 ft | 250 kts | 328° |
| 2026-05-05 10:12 | 44.90404 | -0.79795 | 3776 ft | 255 kts | 328° |
| 2026-05-05 10:12 | 44.92009 | -0.80933 | 4672 ft | 264 kts | 343° |
| 2026-05-05 10:12 | 44.93854 | -0.80891 | 5587 ft | 275 kts | 18° |
| 2026-05-05 10:12 | 44.95506 | -0.79474 | 6480 ft | 283 kts | 37° |
| 2026-05-05 10:13 | 44.97018 | -0.77661 | 7275 ft | 287 kts | 41° |
| 2026-05-05 10:13 | 44.98498 | -0.75753 | 8149 ft | 290 kts | 43° |
| 2026-05-05 10:13 | 44.99970 | -0.73822 | 8948 ft | 295 kts | 43° |
| 2026-05-05 10:13 | 45.01490 | -0.71836 | 9809 ft | 299 kts | 43° |
| 2026-05-05 10:14 | 45.03047 | -0.69823 | 10421 ft | 313 kts | 41° |
| 2026-05-05 10:14 | 45.04730 | -0.67670 | 10911 ft | 340 kts | 44° |
| 2026-05-05 10:14 | 45.06531 | -0.65384 | 11463 ft | 352 kts | 42° |
| 2026-05-05 10:14 | 45.08373 | -0.63056 | 12180 ft | 358 kts | 43° |
| 2026-05-05 10:15 | 45.10238 | -0.60701 | 12911 ft | 362 kts | 42° |
| 2026-05-05 10:15 | 45.12126 | -0.58318 | 13665 ft | 366 kts | 42° |
| 2026-05-05 10:15 | 45.14090 | -0.56070 | 14310 ft | 371 kts | 34° |
| 2026-05-05 10:15 | 45.16361 | -0.54321 | 14982 ft | 374 kts | 23° |
| 2026-05-05 10:16 | 45.18824 | -0.53108 | 15631 ft | 378 kts | 18° |
| 2026-05-05 10:16 | 45.21338 | -0.51961 | 16333 ft | 380 kts | 18° |
| 2026-05-05 10:16 | 45.23862 | -0.50804 | 16980 ft | 384 kts | 18° |
| 2026-05-05 10:16 | 45.26413 | -0.49629 | 17629 ft | 387 kts | 18° |
| 2026-05-05 10:17 | 45.29007 | -0.48582 | 18277 ft | 390 kts | 9° |
| 2026-05-05 10:17 | 45.31682 | -0.48509 | 18775 ft | 393 kts | 351° |
| 2026-05-05 10:17 | 45.34316 | -0.49551 | 19338 ft | 394 kts | 340° |
| 2026-05-05 10:17 | 45.36910 | -0.50862 | 19896 ft | 397 kts | 340° |
| 2026-05-05 10:18 | 45.39521 | -0.52188 | 20392 ft | 401 kts | 340° |
| 2026-05-05 10:18 | 45.42157 | -0.53527 | 20917 ft | 404 kts | 340° |
| 2026-05-05 10:18 | 45.44813 | -0.54875 | 21487 ft | 406 kts | 340° |
| 2026-05-05 10:18 | 45.47487 | -0.56230 | 22070 ft | 410 kts | 340° |
| 2026-05-05 10:19 | 45.50189 | -0.57597 | 22546 ft | 414 kts | 340° |
| 2026-05-05 10:19 | 45.52875 | -0.58959 | 23059 ft | 417 kts | 340° |
| 2026-05-05 10:19 | 45.55609 | -0.60350 | 23572 ft | 419 kts | 340° |
| 2026-05-05 10:19 | 45.58365 | -0.61754 | 23974 ft | 422 kts | 340° |
| 2026-05-05 10:20 | 45.61143 | -0.63172 | 24361 ft | 426 kts | 341° |
| 2026-05-05 10:20 | 45.63940 | -0.64598 | 24753 ft | 429 kts | 341° |
| 2026-05-05 10:20 | 45.66758 | -0.66034 | 25145 ft | 431 kts | 341° |
| 2026-05-05 10:20 | 45.69592 | -0.67478 | 25543 ft | 434 kts | 341° |
| 2026-05-05 10:21 | 45.72445 | -0.68937 | 25939 ft | 437 kts | 341° |
| 2026-05-05 10:21 | 45.75276 | -0.70389 | 26317 ft | 439 kts | 341° |
| 2026-05-05 10:21 | 45.78161 | -0.71872 | 26680 ft | 442 kts | 341° |
| 2026-05-05 10:21 | 45.81067 | -0.73364 | 27046 ft | 445 kts | 341° |
| 2026-05-05 10:22 | 45.83994 | -0.74868 | 27417 ft | 448 kts | 341° |
| 2026-05-05 10:22 | 45.86934 | -0.76378 | 27789 ft | 450 kts | 341° |
| 2026-05-05 10:22 | 45.89894 | -0.77898 | 28157 ft | 453 kts | 341° |
| 2026-05-05 10:22 | 45.92870 | -0.79427 | 28526 ft | 456 kts | 341° |
| 2026-05-05 10:23 | 45.95863 | -0.80969 | 28864 ft | 458 kts | 341° |
| 2026-05-05 10:23 | 45.98831 | -0.82501 | 29193 ft | 461 kts | 342° |
| 2026-05-05 10:23 | 46.01858 | -0.84065 | 29502 ft | 464 kts | 342° |
| 2026-05-05 10:23 | 46.04899 | -0.85641 | 29810 ft | 466 kts | 342° |
| 2026-05-05 10:24 | 46.07959 | -0.87230 | 30096 ft | 469 kts | 342° |
| 2026-05-05 10:24 | 46.11034 | -0.88827 | 30348 ft | 471 kts | 342° |
| 2026-05-05 10:24 | 46.14122 | -0.90432 | 30604 ft | 473 kts | 342° |
| 2026-05-05 10:24 | 46.17217 | -0.92044 | 30918 ft | 473 kts | 342° |
| 2026-05-05 10:25 | 46.20259 | -0.93862 | 31273 ft | 475 kts | 334° |
| 2026-05-05 10:25 | 46.23101 | -0.96305 | 31609 ft | 476 kts | 325° |
| 2026-05-05 10:25 | 46.25711 | -0.99244 | 31971 ft | 476 kts | 321° |
| 2026-05-05 10:25 | 46.28254 | -1.02197 | 32356 ft | 475 kts | 321° |
| 2026-05-05 10:26 | 46.30828 | -1.05180 | 32752 ft | 473 kts | 321° |
| 2026-05-05 10:26 | 46.33396 | -1.08149 | 33133 ft | 472 kts | 321° |
| 2026-05-05 10:26 | 46.35962 | -1.11115 | 33517 ft | 471 kts | 321° |
| 2026-05-05 10:26 | 46.38519 | -1.14074 | 33853 ft | 471 kts | 320° |
| 2026-05-05 10:27 | 46.43604 | -1.19991 | 33913 ft | 466 kts | 320° |
| 2026-05-05 10:27 | 46.48638 | -1.25876 | 33915 ft | 464 kts | 320° |
| 2026-05-05 10:28 | 46.53626 | -1.31721 | 33918 ft | 464 kts | 320° |
| 2026-05-05 10:28 | 46.58653 | -1.37592 | 33918 ft | 464 kts | 323° |
| 2026-05-05 10:29 | 46.64261 | -1.42181 | 33924 ft | 463 kts | 334° |
| 2026-05-05 10:29 | 46.70061 | -1.46269 | 33918 ft | 463 kts | 334° |
| 2026-05-05 10:30 | 46.75819 | -1.50361 | 33914 ft | 464 kts | 334° |
| 2026-05-05 10:30 | 46.81617 | -1.54496 | 33913 ft | 464 kts | 334° |
| 2026-05-05 10:31 | 46.87595 | -1.57946 | 33911 ft | 462 kts | 348° |
| 2026-05-05 10:31 | 46.93955 | -1.59029 | 33905 ft | 460 kts | 357° |
| 2026-05-05 10:32 | 47.00305 | -1.59667 | 33909 ft | 461 kts | 358° |
| 2026-05-05 10:32 | 47.06693 | -1.60332 | 33908 ft | 460 kts | 358° |
| 2026-05-05 10:33 | 47.13074 | -1.60994 | 33918 ft | 459 kts | 358° |
| 2026-05-05 10:33 | 47.19451 | -1.61685 | 33910 ft | 459 kts | 357° |
| 2026-05-05 10:34 | 47.25825 | -1.62540 | 33908 ft | 460 kts | 356° |
| 2026-05-05 10:34 | 47.32157 | -1.63445 | 33903 ft | 460 kts | 356° |
| 2026-05-05 10:35 | 47.38536 | -1.64341 | 33888 ft | 461 kts | 357° |
| 2026-05-05 10:35 | 47.44928 | -1.65245 | 33884 ft | 462 kts | 357° |
| 2026-05-05 10:36 | 47.51355 | -1.66161 | 33891 ft | 466 kts | 357° |
| 2026-05-05 10:36 | 47.57778 | -1.67080 | 33902 ft | 467 kts | 357° |
| 2026-05-05 10:37 | 47.64256 | -1.68018 | 33904 ft | 468 kts | 357° |
| 2026-05-05 10:37 | 47.70745 | -1.68949 | 33905 ft | 468 kts | 357° |
| 2026-05-05 10:38 | 47.77232 | -1.69874 | 33907 ft | 468 kts | 357° |
| 2026-05-05 10:38 | 47.83722 | -1.70806 | 33911 ft | 470 kts | 357° |
| 2026-05-05 10:39 | 47.90185 | -1.71728 | 33914 ft | 470 kts | 357° |
| 2026-05-05 10:39 | 47.96696 | -1.72668 | 33915 ft | 470 kts | 357° |
| 2026-05-05 10:40 | 48.03217 | -1.73624 | 33922 ft | 472 kts | 356° |
| 2026-05-05 10:40 | 48.09763 | -1.74210 | 33920 ft | 471 kts | 2° |
| 2026-05-05 10:41 | 48.16274 | -1.74286 | 33921 ft | 471 kts | 2° |
| 2026-05-05 10:41 | 48.22837 | -1.74364 | 33916 ft | 472 kts | 2° |
| 2026-05-05 10:42 | 48.32709 | -1.74480 | 33924 ft | 473 kts | 2° |
| 2026-05-05 10:43 | 48.39296 | -1.74558 | 33925 ft | 473 kts | 2° |
| 2026-05-05 10:43 | 48.45888 | -1.74634 | 33929 ft | 475 kts | 1° |
| 2026-05-05 10:44 | 48.52463 | -1.74719 | 33933 ft | 476 kts | 1° |
| 2026-05-05 10:44 | 48.59089 | -1.74807 | 33936 ft | 476 kts | 1° |
| 2026-05-05 10:45 | 48.65715 | -1.74887 | 33936 ft | 476 kts | 1° |
| 2026-05-05 10:45 | 48.72352 | -1.74972 | 33939 ft | 477 kts | 1° |
| 2026-05-05 10:46 | 48.78935 | -1.75052 | 33942 ft | 475 kts | 1° |
| 2026-05-05 10:46 | 48.85537 | -1.75130 | 33945 ft | 474 kts | 1° |
| 2026-05-05 10:47 | 48.92136 | -1.75198 | 33936 ft | 474 kts | 2° |
| 2026-05-05 10:47 | 48.97626 | -1.75078 | 33904 ft | 476 kts | 3° |
| 2026-05-05 10:47 | 49.00925 | -1.74981 | 34059 ft | 474 kts | 3° |
| 2026-05-05 10:48 | 49.04229 | -1.74854 | 33936 ft | 475 kts | 4° |
| 2026-05-05 10:48 | 49.11892 | -1.74443 | 33941 ft | 473 kts | 3° |
| 2026-05-05 10:49 | 49.18465 | -1.74138 | 33954 ft | 472 kts | 2° |
| 2026-05-05 10:49 | 49.23919 | -1.73933 | 33952 ft | 472 kts | 2° |
| 2026-05-05 10:50 | 49.30488 | -1.73692 | 33947 ft | 472 kts | 2° |
| 2026-05-05 10:50 | 49.38099 | -1.73402 | 33962 ft | 470 kts | 2° |
| 2026-05-05 10:51 | 49.43536 | -1.73189 | 33970 ft | 470 kts | 2° |
| 2026-05-05 10:51 | 49.50078 | -1.72939 | 33970 ft | 470 kts | 2° |
| 2026-05-05 10:52 | 49.56603 | -1.72691 | 33971 ft | 468 kts | 2° |
| 2026-05-05 10:52 | 49.63940 | -1.70238 | 33974 ft | 465 kts | 21° |
| 2026-05-05 10:53 | 49.69004 | -1.67431 | 33972 ft | 465 kts | 21° |
| 2026-05-05 10:53 | 49.75109 | -1.64063 | 33973 ft | 466 kts | 20° |
| 2026-05-05 10:54 | 49.81207 | -1.60685 | 33974 ft | 465 kts | 20° |
| 2026-05-05 10:54 | 49.87277 | -1.57313 | 33973 ft | 462 kts | 20° |
| 2026-05-05 10:55 | 49.93329 | -1.53950 | 33972 ft | 462 kts | 20° |
| 2026-05-05 10:55 | 49.99320 | -1.50601 | 33454 ft | 459 kts | 20° |
| 2026-05-05 10:55 | 50.02358 | -1.48949 | 32418 ft | 465 kts | 19° |
| 2026-05-05 10:56 | 50.05398 | -1.47411 | 31508 ft | 457 kts | 18° |
| 2026-05-05 10:56 | 50.08416 | -1.45963 | 30581 ft | 451 kts | 18° |
| 2026-05-05 10:56 | 50.11418 | -1.44558 | 30033 ft | 449 kts | 18° |
| 2026-05-05 10:56 | 50.14391 | -1.43164 | 29901 ft | 445 kts | 18° |
| 2026-05-05 10:57 | 50.17331 | -1.41763 | 29351 ft | 439 kts | 19° |
| 2026-05-05 10:57 | 50.20195 | -1.40375 | 28357 ft | 433 kts | 19° |
| 2026-05-05 10:57 | 50.23049 | -1.38973 | 27464 ft | 426 kts | 19° |
| 2026-05-05 10:57 | 50.25859 | -1.37579 | 27093 ft | 424 kts | 19° |
| 2026-05-05 10:58 | 50.28665 | -1.36181 | 26937 ft | 422 kts | 19° |
| 2026-05-05 10:58 | 50.31462 | -1.34793 | 26720 ft | 421 kts | 19° |
| 2026-05-05 10:58 | 50.34257 | -1.33408 | 25939 ft | 424 kts | 19° |
| 2026-05-05 10:58 | 50.37098 | -1.32000 | 24952 ft | 432 kts | 18° |
| 2026-05-05 10:59 | 50.39991 | -1.30567 | 23990 ft | 439 kts | 18° |
| 2026-05-05 10:59 | 50.42926 | -1.29112 | 22944 ft | 445 kts | 18° |
| 2026-05-05 10:59 | 50.45897 | -1.27640 | 21867 ft | 450 kts | 18° |
| 2026-05-05 10:59 | 50.48861 | -1.26065 | 20810 ft | 445 kts | 24° |
| 2026-05-05 11:00 | 50.51457 | -1.23766 | 20241 ft | 421 kts | 37° |
| 2026-05-05 11:00 | 50.53660 | -1.20976 | 19832 ft | 397 kts | 40° |
| 2026-05-05 11:00 | 50.55752 | -1.18254 | 19071 ft | 386 kts | 40° |
| 2026-05-05 11:00 | 50.57814 | -1.15567 | 18653 ft | 381 kts | 40° |
| 2026-05-05 11:01 | 50.59846 | -1.12906 | 18086 ft | 380 kts | 40° |
| 2026-05-05 11:01 | 50.61855 | -1.10255 | 17667 ft | 374 kts | 40° |
| 2026-05-05 11:01 | 50.63839 | -1.07628 | 17169 ft | 370 kts | 40° |
| 2026-05-05 11:01 | 50.65780 | -1.04961 | 16568 ft | 370 kts | 45° |
| 2026-05-05 11:02 | 50.67441 | -1.01909 | 16121 ft | 365 kts | 51° |
| 2026-05-05 11:02 | 50.69042 | -0.98811 | 15636 ft | 363 kts | 51° |
| 2026-05-05 11:02 | 50.70608 | -0.95797 | 15260 ft | 358 kts | 50° |
| 2026-05-05 11:02 | 50.72186 | -0.92765 | 14744 ft | 357 kts | 50° |
| 2026-05-05 11:03 | 50.73755 | -0.89750 | 14320 ft | 353 kts | 50° |
| 2026-05-05 11:03 | 50.75305 | -0.86757 | 13815 ft | 352 kts | 52° |
| 2026-05-05 11:03 | 50.76518 | -0.83485 | 13650 ft | 341 kts | 68° |
| 2026-05-05 11:03 | 50.77176 | -0.79956 | 13480 ft | 330 kts | 74° |
| 2026-05-05 11:04 | 50.77765 | -0.76471 | 13094 ft | 327 kts | 74° |
| 2026-05-05 11:04 | 50.78344 | -0.73015 | 12960 ft | 324 kts | 74° |
| 2026-05-05 11:04 | 50.78918 | -0.69564 | 12975 ft | 326 kts | 75° |
| 2026-05-05 11:04 | 50.79489 | -0.66101 | 12592 ft | 327 kts | 75° |
| 2026-05-05 11:05 | 50.80063 | -0.62617 | 11898 ft | 333 kts | 75° |
| 2026-05-05 11:05 | 50.80640 | -0.59094 | 11474 ft | 330 kts | 75° |
| 2026-05-05 11:05 | 50.81211 | -0.55599 | 11064 ft | 326 kts | 75° |
| 2026-05-05 11:05 | 50.81772 | -0.52170 | 10956 ft | 320 kts | 75° |
| 2026-05-05 11:06 | 50.82322 | -0.48796 | 10971 ft | 311 kts | 75° |
| 2026-05-05 11:06 | 50.82847 | -0.45575 | 10970 ft | 294 kts | 75° |
| 2026-05-05 11:06 | 50.83354 | -0.42474 | 10974 ft | 290 kts | 75° |
| 2026-05-05 11:06 | 50.83854 | -0.39414 | 10664 ft | 285 kts | 75° |
| 2026-05-05 11:07 | 50.84345 | -0.36393 | 10036 ft | 283 kts | 75° |
| 2026-05-05 11:07 | 50.84823 | -0.33447 | 9632 ft | 273 kts | 75° |
| 2026-05-05 11:07 | 50.85276 | -0.30643 | 9435 ft | 255 kts | 75° |
| 2026-05-05 11:07 | 50.85709 | -0.27964 | 9003 ft | 248 kts | 75° |
| 2026-05-05 11:08 | 50.86132 | -0.25334 | 8503 ft | 245 kts | 75° |
| 2026-05-05 11:08 | 50.86551 | -0.22723 | 7977 ft | 244 kts | 75° |
| 2026-05-05 11:08 | 50.86967 | -0.20131 | 7468 ft | 242 kts | 75° |
| 2026-05-05 11:08 | 50.87378 | -0.17559 | 7048 ft | 240 kts | 75° |
| 2026-05-05 11:09 | 50.87786 | -0.15011 | 6970 ft | 239 kts | 75° |
| 2026-05-05 11:09 | 50.88230 | -0.12475 | 6991 ft | 239 kts | 66° |
| 2026-05-05 11:09 | 50.89203 | -0.10433 | 7007 ft | 238 kts | 38° |
| 2026-05-05 11:09 | 50.90570 | -0.08959 | 7010 ft | 238 kts | 32° |
| 2026-05-05 11:10 | 50.91979 | -0.07596 | 6838 ft | 237 kts | 31° |
| 2026-05-05 11:10 | 50.93389 | -0.06251 | 6522 ft | 236 kts | 31° |
| 2026-05-05 11:10 | 50.94793 | -0.04918 | 6225 ft | 234 kts | 31° |
| 2026-05-05 11:10 | 50.96188 | -0.03597 | 5915 ft | 233 kts | 31° |
| 2026-05-05 11:11 | 50.97576 | -0.02289 | 5636 ft | 231 kts | 31° |
| 2026-05-05 11:11 | 50.99064 | -0.01438 | 5390 ft | 229 kts | 5° |
| 2026-05-05 11:11 | 51.00612 | -0.01960 | 5089 ft | 233 kts | 333° |
| 2026-05-05 11:11 | 51.01746 | -0.03734 | 4805 ft | 236 kts | 300° |
| 2026-05-05 11:12 | 51.02255 | -0.06226 | 4445 ft | 240 kts | 283° |
| 2026-05-05 11:12 | 51.02555 | -0.08835 | 4111 ft | 240 kts | 282° |
| 2026-05-05 11:12 | 51.02817 | -0.11430 | 4000 ft | 237 kts | 282° |
| 2026-05-05 11:12 | 51.03059 | -0.14021 | 3909 ft | 237 kts | 281° |
| 2026-05-05 11:13 | 51.03296 | -0.16599 | 3615 ft | 235 kts | 281° |
| 2026-05-05 11:13 | 51.03534 | -0.19165 | 3306 ft | 233 kts | 281° |
| 2026-05-05 11:13 | 51.03761 | -0.21706 | 3055 ft | 230 kts | 281° |
| 2026-05-05 11:13 | 51.03949 | -0.24235 | 3010 ft | 232 kts | 275° |
| 2026-05-05 11:14 | 51.03950 | -0.26813 | 3009 ft | 233 kts | 272° |
| 2026-05-05 11:14 | 51.03899 | -0.29289 | 3003 ft | 224 kts | 271° |
| 2026-05-05 11:14 | 51.03845 | -0.31766 | 3009 ft | 224 kts | 271° |
| 2026-05-05 11:14 | 51.03802 | -0.34234 | 3010 ft | 223 kts | 271° |
| 2026-05-05 11:15 | 51.03748 | -0.36705 | 3011 ft | 223 kts | 271° |
| 2026-05-05 11:15 | 51.03695 | -0.39170 | 3009 ft | 223 kts | 271° |
| 2026-05-05 11:15 | 51.03648 | -0.41627 | 3010 ft | 221 kts | 271° |
| 2026-05-05 11:15 | 51.03604 | -0.44024 | 3006 ft | 215 kts | 271° |
| 2026-05-05 11:16 | 51.03556 | -0.46387 | 3009 ft | 214 kts | 271° |
| 2026-05-05 11:16 | 51.03596 | -0.48730 | 3002 ft | 210 kts | 289° |
| 2026-05-05 11:16 | 51.04313 | -0.50614 | 3008 ft | 201 kts | 324° |
| 2026-05-05 11:16 | 51.05542 | -0.51600 | 3009 ft | 199 kts | 346° |
| 2026-05-05 11:17 | 51.06898 | -0.51896 | 3014 ft | 196 kts | 4° |
| 2026-05-05 11:17 | 51.08228 | -0.51511 | 3010 ft | 194 kts | 20° |
| 2026-05-05 11:17 | 51.09417 | -0.50487 | 3011 ft | 196 kts | 37° |
| 2026-05-05 11:17 | 51.10353 | -0.48908 | 3009 ft | 198 kts | 55° |
| 2026-05-05 11:18 | 51.10921 | -0.46913 | 3011 ft | 200 kts | 73° |
| 2026-05-05 11:18 | 51.11227 | -0.44752 | 3013 ft | 200 kts | 74° |
| 2026-05-05 11:18 | 51.11531 | -0.42590 | 2948 ft | 200 kts | 75° |
| 2026-05-05 11:18 | 51.11830 | -0.40461 | 2735 ft | 200 kts | 75° |
| 2026-05-05 11:19 | 51.12132 | -0.38302 | 2482 ft | 200 kts | 74° |
| 2026-05-05 11:19 | 51.12433 | -0.36153 | 2227 ft | 199 kts | 74° |
| 2026-05-05 11:19 | 51.12728 | -0.34040 | 1944 ft | 191 kts | 74° |
| 2026-05-05 11:19 | 51.13004 | -0.32051 | 1705 ft | 176 kts | 74° |
| 2026-05-05 11:20 | 51.13258 | -0.30226 | 1463 ft | 161 kts | 73° |
| 2026-05-05 11:20 | 51.13485 | -0.28589 | 1248 ft | 144 kts | 74° |
| 2026-05-05 11:20 | 51.13692 | -0.27093 | 1047 ft | 134 kts | 73° |
| 2026-05-05 11:20 | 51.13891 | -0.25671 | 875 ft | 131 kts | 72° |
| 2026-05-05 11:21 | 51.14089 | -0.24274 | 702 ft | 132 kts | 72° |
| 2026-05-05 11:21 | 51.14292 | -0.22851 | 547 ft | 131 kts | 74° |
| 2026-05-05 11:21 | 51.14484 | -0.21435 | 355 ft | 131 kts | 74° |
| 2026-05-05 11:21 | 51.14677 | -0.20042 | 215 ft | 122 kts | 73° |
| 2026-05-05 11:22 | 51.14831 | -0.18915 | 209 ft | 81 kts | 77° |
| 2026-05-05 11:22 | 51.14917 | -0.18301 | 210 ft | 36 kts | 77° |
| 2026-05-05 11:22 | 51.14971 | -0.17991 | 209 ft | 24 kts | 63° |
| 2026-05-05 11:22 | 51.15055 | -0.17804 | 215 ft | 1 kts | 50° |
| 2026-05-05 11:23 | 51.15081 | -0.17763 | 214 ft | 9 kts | 36° |
| 2026-05-05 11:23 | 51.15144 | -0.17767 | 205 ft | 12 kts | 353° |
| 2026-05-05 11:23 | 51.15207 | -0.17779 | 209 ft | 0 kts | 353° |
| 2026-05-05 11:23 | 51.15220 | -0.17782 | 205 ft | 0 kts | 350° |
| 2026-05-05 11:24 | 51.15262 | -0.17738 | 207 ft | 14 kts | 68° |
| 2026-05-05 11:24 | 51.15285 | -0.17575 | 205 ft | 17 kts | 77° |
| 2026-05-05 11:24 | 51.15308 | -0.17400 | 215 ft | 13 kts | 63° |
| 2026-05-05 11:24 | 51.15396 | -0.17391 | 212 ft | 15 kts | 348° |
| 2026-05-05 11:25 | 51.15508 | -0.17429 | 216 ft | 7 kts | 347° |
| 2026-05-05 11:25 | 51.15543 | -0.17472 | 208 ft | 9 kts | 274° |
| 2026-05-05 11:25 | 51.15527 | -0.17602 | 210 ft | 14 kts | 258° |
| 2026-05-05 11:25 | 51.15511 | -0.17725 | 206 ft | 4 kts | 263° |
| 2026-05-05 11:26 | 51.15533 | -0.17747 | 205 ft | 6 kts | 343° |
| 2026-05-05 11:26 | 51.15564 | -0.17758 | 205 ft | 2 kts | 348° |
| 2026-05-05 11:26 | 51.15572 | -0.17761 | 205 ft | 0 kts | 347° |
| 2026-05-05 11:26 | 51.15571 | -0.17761 | 205 ft | 0 kts | 347° |
| 2026-05-05 11:27 | 51.15572 | -0.17761 | 205 ft | 0 kts | 347° |